sensor_id;sensor_type;location;lat;lon;timestamp;temperature;humidity
546;DHT22;259;53.304;9.816;2024-03-22T00:00:57;14.30;90.70
546;DHT22;259;53.304;9.816;2024-03-22T00:03:22;14.30;90.70
546;DHT22;259;53.304;9.816;2024-03-22T00:05:48;14.30;90.70
546;DHT22;259;53.304;9.816;2024-03-22T00:08:14;14.20;90.60
546;DHT22;259;53.304;9.816;2024-03-22T00:10:40;14.20;90.60
546;DHT22;259;53.304;9.816;2024-03-22T00:13:06;14.20;90.60
546;DHT22;259;53.304;9.816;2024-03-22T00:15:32;14.20;90.60
546;DHT22;259;53.304;9.816;2024-03-22T00:17:57;14.20;90.60
546;DHT22;259;53.304;9.816;2024-03-22T00:20:23;14.20;90.60
546;DHT22;259;53.304;9.816;2024-03-22T00:22:49;14.20;90.70
546;DHT22;259;53.304;9.816;2024-03-22T00:25:14;14.20;90.60
546;DHT22;259;53.304;9.816;2024-03-22T00:27:40;14.20;90.70
546;DHT22;259;53.304;9.816;2024-03-22T00:30:06;14.20;90.70
546;DHT22;259;53.304;9.816;2024-03-22T00:32:32;14.20;90.70
546;DHT22;259;53.304;9.816;2024-03-22T00:34:58;14.10;90.70
546;DHT22;259;53.304;9.816;2024-03-22T00:37:23;14.10;90.60
546;DHT22;259;53.304;9.816;2024-03-22T00:39:49;14.10;90.60
546;DHT22;259;53.304;9.816;2024-03-22T00:42:14;14.10;90.60
546;DHT22;259;53.304;9.816;2024-03-22T00:44:40;14.10;90.70
546;DHT22;259;53.304;9.816;2024-03-22T00:47:06;14.10;90.60
546;DHT22;259;53.304;9.816;2024-03-22T00:49:32;14.10;90.60
546;DHT22;259;53.304;9.816;2024-03-22T00:51:57;14.10;90.60
546;DHT22;259;53.304;9.816;2024-03-22T00:54:23;14.10;90.70
546;DHT22;259;53.304;9.816;2024-03-22T00:56:49;14.10;90.70
546;DHT22;259;53.304;9.816;2024-03-22T00:59:14;14.10;90.70
546;DHT22;259;53.304;9.816;2024-03-22T01:01:40;14.10;90.60
546;DHT22;259;53.304;9.816;2024-03-22T01:04:06;14.00;90.60
546;DHT22;259;53.304;9.816;2024-03-22T01:06:34;14.00;90.60
546;DHT22;259;53.304;9.816;2024-03-22T01:09:00;14.00;90.60
546;DHT22;259;53.304;9.816;2024-03-22T01:11:25;14.00;91.00
546;DHT22;259;53.304;9.816;2024-03-22T01:13:51;14.00;90.60
546;DHT22;259;53.304;9.816;2024-03-22T01:16:17;14.00;90.60
546;DHT22;259;53.304;9.816;2024-03-22T01:18:42;14.00;90.60
546;DHT22;259;53.304;9.816;2024-03-22T01:21:08;14.00;90.60
546;DHT22;259;53.304;9.816;2024-03-22T01:23:34;14.00;90.60
546;DHT22;259;53.304;9.816;2024-03-22T01:25:59;14.00;91.00
546;DHT22;259;53.304;9.816;2024-03-22T01:28:25;14.00;90.60
546;DHT22;259;53.304;9.816;2024-03-22T01:30:51;14.00;90.60
546;DHT22;259;53.304;9.816;2024-03-22T01:33:16;13.90;90.60
546;DHT22;259;53.304;9.816;2024-03-22T01:35:42;13.90;90.60
546;DHT22;259;53.304;9.816;2024-03-22T01:38:08;13.90;90.70
546;DHT22;259;53.304;9.816;2024-03-22T01:40:33;13.90;90.70
546;DHT22;259;53.304;9.816;2024-03-22T01:43:00;13.90;90.70
546;DHT22;259;53.304;9.816;2024-03-22T01:45:27;13.90;90.60
546;DHT22;259;53.304;9.816;2024-03-22T01:47:57;13.90;90.70
546;DHT22;259;53.304;9.816;2024-03-22T01:50:23;13.90;90.80
546;DHT22;259;53.304;9.816;2024-03-22T01:52:49;13.90;90.80
546;DHT22;259;53.304;9.816;2024-03-22T01:55:15;13.90;90.80
546;DHT22;259;53.304;9.816;2024-03-22T01:57:41;13.90;90.80
546;DHT22;259;53.304;9.816;2024-03-22T02:00:08;13.90;90.70
546;DHT22;259;53.304;9.816;2024-03-22T02:02:34;13.90;90.70
546;DHT22;259;53.304;9.816;2024-03-22T02:05:11;13.90;90.70
546;DHT22;259;53.304;9.816;2024-03-22T02:07:38;13.90;90.70
546;DHT22;259;53.304;9.816;2024-03-22T02:10:04;13.80;90.70
546;DHT22;259;53.304;9.816;2024-03-22T02:12:30;13.80;90.70
546;DHT22;259;53.304;9.816;2024-03-22T02:14:58;13.80;90.70
546;DHT22;259;53.304;9.816;2024-03-22T02:17:23;13.80;90.70
546;DHT22;259;53.304;9.816;2024-03-22T02:19:49;13.80;90.70
546;DHT22;259;53.304;9.816;2024-03-22T02:22:15;13.80;90.80
546;DHT22;259;53.304;9.816;2024-03-22T02:24:40;13.80;90.80
546;DHT22;259;53.304;9.816;2024-03-22T02:27:06;13.80;90.80
546;DHT22;259;53.304;9.816;2024-03-22T02:29:32;13.80;90.90
546;DHT22;259;53.304;9.816;2024-03-22T02:31:57;13.80;90.80
546;DHT22;259;53.304;9.816;2024-03-22T02:34:23;13.80;90.80
546;DHT22;259;53.304;9.816;2024-03-22T02:36:49;13.70;90.80
546;DHT22;259;53.304;9.816;2024-03-22T02:39:15;13.70;90.80
546;DHT22;259;53.304;9.816;2024-03-22T02:41:41;13.70;90.90
546;DHT22;259;53.304;9.816;2024-03-22T02:44:06;13.70;90.90
546;DHT22;259;53.304;9.816;2024-03-22T02:46:32;13.70;90.90
546;DHT22;259;53.304;9.816;2024-03-22T02:48:58;13.70;90.90
546;DHT22;259;53.304;9.816;2024-03-22T02:51:23;13.70;90.90
546;DHT22;259;53.304;9.816;2024-03-22T02:53:50;13.70;90.90
546;DHT22;259;53.304;9.816;2024-03-22T02:56:15;13.70;90.90
546;DHT22;259;53.304;9.816;2024-03-22T02:58:41;13.70;90.90
546;DHT22;259;53.304;9.816;2024-03-22T03:01:07;13.70;90.80
546;DHT22;259;53.304;9.816;2024-03-22T03:03:32;13.70;90.80
546;DHT22;259;53.304;9.816;2024-03-22T03:05:58;13.60;90.90
546;DHT22;259;53.304;9.816;2024-03-22T03:08:24;13.60;90.80
546;DHT22;259;53.304;9.816;2024-03-22T03:10:49;13.60;90.90
546;DHT22;259;53.304;9.816;2024-03-22T03:13:15;13.60;90.80
546;DHT22;259;53.304;9.816;2024-03-22T03:15:41;13.60;90.80
546;DHT22;259;53.304;9.816;2024-03-22T03:18:06;13.60;90.80
546;DHT22;259;53.304;9.816;2024-03-22T03:20:32;13.60;90.90
546;DHT22;259;53.304;9.816;2024-03-22T03:22:58;13.60;90.80
546;DHT22;259;53.304;9.816;2024-03-22T03:25:25;13.60;90.80
546;DHT22;259;53.304;9.816;2024-03-22T03:27:51;13.60;90.80
546;DHT22;259;53.304;9.816;2024-03-22T03:30:17;13.60;90.90
546;DHT22;259;53.304;9.816;2024-03-22T03:32:44;13.60;90.90
546;DHT22;259;53.304;9.816;2024-03-22T03:35:09;13.60;90.80
546;DHT22;259;53.304;9.816;2024-03-22T03:37:35;13.50;90.90
546;DHT22;259;53.304;9.816;2024-03-22T03:40:01;13.50;90.80
546;DHT22;259;53.304;9.816;2024-03-22T03:42:26;13.50;90.80
546;DHT22;259;53.304;9.816;2024-03-22T03:44:52;13.50;90.90
546;DHT22;259;53.304;9.816;2024-03-22T03:47:18;13.50;90.80
546;DHT22;259;53.304;9.816;2024-03-22T03:49:45;13.50;90.80
546;DHT22;259;53.304;9.816;2024-03-22T03:52:11;13.50;90.90
546;DHT22;259;53.304;9.816;2024-03-22T03:54:37;13.50;90.90
546;DHT22;259;53.304;9.816;2024-03-22T03:57:03;13.50;90.90
546;DHT22;259;53.304;9.816;2024-03-22T03:59:29;13.50;90.90
546;DHT22;259;53.304;9.816;2024-03-22T04:01:55;13.50;90.90
546;DHT22;259;53.304;9.816;2024-03-22T04:04:20;13.50;90.90
546;DHT22;259;53.304;9.816;2024-03-22T04:06:46;13.50;90.90
546;DHT22;259;53.304;9.816;2024-03-22T04:09:12;13.50;90.90
546;DHT22;259;53.304;9.816;2024-03-22T04:11:38;13.50;90.90
546;DHT22;259;53.304;9.816;2024-03-22T04:14:04;13.40;90.90
546;DHT22;259;53.304;9.816;2024-03-22T04:16:31;13.40;90.90
546;DHT22;259;53.304;9.816;2024-03-22T04:18:57;13.40;90.90
546;DHT22;259;53.304;9.816;2024-03-22T04:21:22;13.40;90.80
546;DHT22;259;53.304;9.816;2024-03-22T04:23:48;13.40;90.90
546;DHT22;259;53.304;9.816;2024-03-22T04:26:14;13.40;90.90
546;DHT22;259;53.304;9.816;2024-03-22T04:28:40;13.40;90.80
546;DHT22;259;53.304;9.816;2024-03-22T04:31:07;13.40;90.80
546;DHT22;259;53.304;9.816;2024-03-22T04:33:34;13.40;90.80
546;DHT22;259;53.304;9.816;2024-03-22T04:36:02;13.40;90.70
546;DHT22;259;53.304;9.816;2024-03-22T04:38:28;13.40;90.90
546;DHT22;259;53.304;9.816;2024-03-22T04:40:55;13.40;90.90
546;DHT22;259;53.304;9.816;2024-03-22T04:43:22;13.40;90.90
546;DHT22;259;53.304;9.816;2024-03-22T04:45:49;13.40;90.90
546;DHT22;259;53.304;9.816;2024-03-22T04:48:18;13.40;90.90
546;DHT22;259;53.304;9.816;2024-03-22T04:50:46;13.40;90.90
546;DHT22;259;53.304;9.816;2024-03-22T04:53:15;13.40;91.00
546;DHT22;259;53.304;9.816;2024-03-22T04:55:43;13.30;90.90
546;DHT22;259;53.304;9.816;2024-03-22T04:58:17;13.30;90.90
546;DHT22;259;53.304;9.816;2024-03-22T05:00:44;13.30;90.90
546;DHT22;259;53.304;9.816;2024-03-22T05:03:10;13.30;90.80
546;DHT22;259;53.304;9.816;2024-03-22T05:05:37;13.30;91.00
546;DHT22;259;53.304;9.816;2024-03-22T05:08:03;13.30;91.00
546;DHT22;259;53.304;9.816;2024-03-22T05:10:30;13.30;91.00
546;DHT22;259;53.304;9.816;2024-03-22T05:12:56;13.30;91.10
546;DHT22;259;53.304;9.816;2024-03-22T05:15:22;13.30;91.00
546;DHT22;259;53.304;9.816;2024-03-22T05:17:48;13.30;91.00
546;DHT22;259;53.304;9.816;2024-03-22T05:20:14;13.30;91.00
546;DHT22;259;53.304;9.816;2024-03-22T05:22:41;13.30;91.00
546;DHT22;259;53.304;9.816;2024-03-22T05:25:07;13.30;91.00
546;DHT22;259;53.304;9.816;2024-03-22T05:27:34;13.30;91.00
546;DHT22;259;53.304;9.816;2024-03-22T05:29:59;13.30;91.00
546;DHT22;259;53.304;9.816;2024-03-22T05:32:25;13.30;91.10
546;DHT22;259;53.304;9.816;2024-03-22T05:34:52;13.30;91.10
546;DHT22;259;53.304;9.816;2024-03-22T05:37:18;13.30;91.00
546;DHT22;259;53.304;9.816;2024-03-22T05:39:44;13.30;91.10
546;DHT22;259;53.304;9.816;2024-03-22T05:42:09;13.30;91.10
546;DHT22;259;53.304;9.816;2024-03-22T05:44:35;13.30;91.10
546;DHT22;259;53.304;9.816;2024-03-22T05:47:01;13.30;91.10
546;DHT22;259;53.304;9.816;2024-03-22T05:49:27;13.30;91.10
546;DHT22;259;53.304;9.816;2024-03-22T05:51:52;13.20;91.10
546;DHT22;259;53.304;9.816;2024-03-22T05:54:18;13.20;91.10
546;DHT22;259;53.304;9.816;2024-03-22T05:56:44;13.20;91.10
546;DHT22;259;53.304;9.816;2024-03-22T05:59:09;13.20;91.10
546;DHT22;259;53.304;9.816;2024-03-22T06:01:35;13.20;91.10
546;DHT22;259;53.304;9.816;2024-03-22T06:04:01;13.20;91.10
546;DHT22;259;53.304;9.816;2024-03-22T06:06:27;13.20;91.10
546;DHT22;259;53.304;9.816;2024-03-22T06:08:53;13.20;91.10
546;DHT22;259;53.304;9.816;2024-03-22T06:11:20;13.20;91.20
546;DHT22;259;53.304;9.816;2024-03-22T06:13:47;13.20;91.10
546;DHT22;259;53.304;9.816;2024-03-22T06:16:12;13.20;91.20
546;DHT22;259;53.304;9.816;2024-03-22T06:18:39;13.20;91.20
546;DHT22;259;53.304;9.816;2024-03-22T06:21:05;13.20;91.20
546;DHT22;259;53.304;9.816;2024-03-22T06:23:31;13.20;91.20
546;DHT22;259;53.304;9.816;2024-03-22T06:25:57;13.20;91.30
546;DHT22;259;53.304;9.816;2024-03-22T06:28:23;13.20;91.20
546;DHT22;259;53.304;9.816;2024-03-22T06:30:49;13.10;91.20
546;DHT22;259;53.304;9.816;2024-03-22T06:33:15;13.10;91.20
546;DHT22;259;53.304;9.816;2024-03-22T06:35:41;13.10;91.20
546;DHT22;259;53.304;9.816;2024-03-22T06:38:07;13.10;91.20
546;DHT22;259;53.304;9.816;2024-03-22T06:40:34;13.10;91.20
546;DHT22;259;53.304;9.816;2024-03-22T06:43:00;13.10;91.20
546;DHT22;259;53.304;9.816;2024-03-22T06:45:26;13.10;91.20
546;DHT22;259;53.304;9.816;2024-03-22T06:50:18;13.10;90.90
546;DHT22;259;53.304;9.816;2024-03-22T06:52:44;13.10;91.20
546;DHT22;259;53.304;9.816;2024-03-22T06:55:10;13.10;91.20
546;DHT22;259;53.304;9.816;2024-03-22T06:57:37;13.10;91.30
546;DHT22;259;53.304;9.816;2024-03-22T07:00:03;13.10;91.30
546;DHT22;259;53.304;9.816;2024-03-22T07:02:29;13.10;91.30
546;DHT22;259;53.304;9.816;2024-03-22T07:04:55;13.10;91.30
546;DHT22;259;53.304;9.816;2024-03-22T07:07:20;13.10;91.30
546;DHT22;259;53.304;9.816;2024-03-22T07:09:46;13.10;91.30
546;DHT22;259;53.304;9.816;2024-03-22T07:12:13;13.10;91.30
546;DHT22;259;53.304;9.816;2024-03-22T07:14:39;13.10;91.30
546;DHT22;259;53.304;9.816;2024-03-22T07:17:04;13.10;91.30
546;DHT22;259;53.304;9.816;2024-03-22T07:19:30;13.10;91.30
546;DHT22;259;53.304;9.816;2024-03-22T07:21:56;13.10;91.30
546;DHT22;259;53.304;9.816;2024-03-22T07:24:25;13.10;91.70
546;DHT22;259;53.304;9.816;2024-03-22T07:26:51;13.10;91.30
546;DHT22;259;53.304;9.816;2024-03-22T07:29:17;13.10;91.40
546;DHT22;259;53.304;9.816;2024-03-22T07:31:42;13.10;91.40
546;DHT22;259;53.304;9.816;2024-03-22T07:34:08;13.10;91.40
546;DHT22;259;53.304;9.816;2024-03-22T07:36:40;13.10;91.40
546;DHT22;259;53.304;9.816;2024-03-22T07:39:05;13.10;91.40
546;DHT22;259;53.304;9.816;2024-03-22T07:41:34;13.10;91.40
546;DHT22;259;53.304;9.816;2024-03-22T07:44:00;13.10;91.40
546;DHT22;259;53.304;9.816;2024-03-22T07:46:27;13.10;91.50
546;DHT22;259;53.304;9.816;2024-03-22T07:48:53;13.10;91.60
546;DHT22;259;53.304;9.816;2024-03-22T07:51:19;13.10;91.40
546;DHT22;259;53.304;9.816;2024-03-22T07:53:45;13.20;91.10
546;DHT22;259;53.304;9.816;2024-03-22T07:56:11;13.30;91.00
546;DHT22;259;53.304;9.816;2024-03-22T07:58:38;13.50;90.70
546;DHT22;259;53.304;9.816;2024-03-22T08:01:04;13.80;90.20
546;DHT22;259;53.304;9.816;2024-03-22T08:03:30;14.20;88.80
546;DHT22;259;53.304;9.816;2024-03-22T08:05:55;14.70;86.70
546;DHT22;259;53.304;9.816;2024-03-22T08:08:21;15.30;84.10
546;DHT22;259;53.304;9.816;2024-03-22T08:10:47;15.90;81.10
546;DHT22;259;53.304;9.816;2024-03-22T08:13:13;16.70;78.40
546;DHT22;259;53.304;9.816;2024-03-22T08:15:39;17.30;75.80
546;DHT22;259;53.304;9.816;2024-03-22T08:18:05;17.80;73.90
546;DHT22;259;53.304;9.816;2024-03-22T08:20:31;18.30;72.50
546;DHT22;259;53.304;9.816;2024-03-22T08:22:59;18.70;71.10
546;DHT22;259;53.304;9.816;2024-03-22T08:25:24;19.20;69.90
546;DHT22;259;53.304;9.816;2024-03-22T08:27:50;19.50;68.90
546;DHT22;259;53.304;9.816;2024-03-22T08:30:19;19.80;68.10
546;DHT22;259;53.304;9.816;2024-03-22T08:32:45;20.10;67.30
546;DHT22;259;53.304;9.816;2024-03-22T08:35:11;20.30;66.70
546;DHT22;259;53.304;9.816;2024-03-22T08:37:36;20.60;66.00
546;DHT22;259;53.304;9.816;2024-03-22T08:40:02;20.80;65.80
546;DHT22;259;53.304;9.816;2024-03-22T08:42:29;20.90;65.30
546;DHT22;259;53.304;9.816;2024-03-22T08:44:55;21.20;64.90
546;DHT22;259;53.304;9.816;2024-03-22T08:47:21;21.40;64.60
546;DHT22;259;53.304;9.816;2024-03-22T08:49:47;21.50;64.10
546;DHT22;259;53.304;9.816;2024-03-22T08:52:12;21.70;63.90
546;DHT22;259;53.304;9.816;2024-03-22T08:54:38;21.80;63.60
546;DHT22;259;53.304;9.816;2024-03-22T08:57:04;22.00;63.40
546;DHT22;259;53.304;9.816;2024-03-22T08:59:29;22.20;63.20
546;DHT22;259;53.304;9.816;2024-03-22T09:01:55;22.30;63.00
546;DHT22;259;53.304;9.816;2024-03-22T09:04:20;22.50;63.10
546;DHT22;259;53.304;9.816;2024-03-22T09:06:46;22.80;62.80
546;DHT22;259;53.304;9.816;2024-03-22T09:09:12;23.00;62.50
546;DHT22;259;53.304;9.816;2024-03-22T09:11:38;23.30;62.20
546;DHT22;259;53.304;9.816;2024-03-22T09:14:03;23.70;62.00
546;DHT22;259;53.304;9.816;2024-03-22T09:16:29;23.90;61.40
546;DHT22;259;53.304;9.816;2024-03-22T09:18:56;24.20;61.20
546;DHT22;259;53.304;9.816;2024-03-22T09:21:21;24.50;69.70
546;DHT22;259;53.304;9.816;2024-03-22T09:23:47;24.70;88.30
546;DHT22;259;53.304;9.816;2024-03-22T09:26:12;25.00;63.40
546;DHT22;259;53.304;9.816;2024-03-22T09:28:39;25.10;61.90
546;DHT22;259;53.304;9.816;2024-03-22T09:31:06;25.30;61.30
546;DHT22;259;53.304;9.816;2024-03-22T09:33:35;25.50;60.70
546;DHT22;259;53.304;9.816;2024-03-22T09:36:02;25.80;61.00
546;DHT22;259;53.304;9.816;2024-03-22T09:38:28;26.10;59.80
546;DHT22;259;53.304;9.816;2024-03-22T09:43:23;26.40;59.00
546;DHT22;259;53.304;9.816;2024-03-22T09:45:49;26.40;59.60
546;DHT22;259;53.304;9.816;2024-03-22T09:48:19;26.40;60.10
546;DHT22;259;53.304;9.816;2024-03-22T09:50:48;26.40;60.00
546;DHT22;259;53.304;9.816;2024-03-22T09:53:21;26.40;60.20
546;DHT22;259;53.304;9.816;2024-03-22T09:55:48;26.40;60.50
546;DHT22;259;53.304;9.816;2024-03-22T09:58:15;26.40;60.70
546;DHT22;259;53.304;9.816;2024-03-22T10:00:42;26.30;60.90
546;DHT22;259;53.304;9.816;2024-03-22T10:03:12;26.20;61.30
546;DHT22;259;53.304;9.816;2024-03-22T10:05:37;26.20;61.50
546;DHT22;259;53.304;9.816;2024-03-22T10:08:04;26.10;61.80
546;DHT22;259;53.304;9.816;2024-03-22T10:10:33;26.00;62.10
546;DHT22;259;53.304;9.816;2024-03-22T10:13:03;25.80;62.70
546;DHT22;259;53.304;9.816;2024-03-22T10:15:32;25.80;63.90
546;DHT22;259;53.304;9.816;2024-03-22T10:17:57;25.60;63.50
546;DHT22;259;53.304;9.816;2024-03-22T10:20:24;25.50;63.80
546;DHT22;259;53.304;9.816;2024-03-22T10:22:55;25.40;64.60
546;DHT22;259;53.304;9.816;2024-03-22T10:25:23;25.30;65.50
546;DHT22;259;53.304;9.816;2024-03-22T10:27:49;25.10;65.90
546;DHT22;259;53.304;9.816;2024-03-22T10:30:16;25.00;66.00
546;DHT22;259;53.304;9.816;2024-03-22T10:32:43;24.80;66.70
546;DHT22;259;53.304;9.816;2024-03-22T10:35:12;24.80;67.00
546;DHT22;259;53.304;9.816;2024-03-22T10:37:39;24.50;66.90
546;DHT22;259;53.304;9.816;2024-03-22T10:40:05;24.40;67.10
546;DHT22;259;53.304;9.816;2024-03-22T10:42:38;24.30;67.20
546;DHT22;259;53.304;9.816;2024-03-22T10:45:06;24.30;70.90
546;DHT22;259;53.304;9.816;2024-03-22T10:47:34;24.20;69.60
546;DHT22;259;53.304;9.816;2024-03-22T10:50:08;24.10;69.30
546;DHT22;259;53.304;9.816;2024-03-22T10:52:54;23.90;70.00
546;DHT22;259;53.304;9.816;2024-03-22T10:55:36;23.90;70.20
546;DHT22;259;53.304;9.816;2024-03-22T10:58:03;23.80;70.40
546;DHT22;259;53.304;9.816;2024-03-22T11:00:34;23.90;69.80
546;DHT22;259;53.304;9.816;2024-03-22T11:03:04;24.00;69.60
546;DHT22;259;53.304;9.816;2024-03-22T11:05:30;24.20;69.10
546;DHT22;259;53.304;9.816;2024-03-22T11:08:05;24.50;68.60
546;DHT22;259;53.304;9.816;2024-03-22T11:10:34;24.70;67.60
546;DHT22;259;53.304;9.816;2024-03-22T11:13:04;25.00;67.00
546;DHT22;259;53.304;9.816;2024-03-22T11:15:30;25.20;66.40
546;DHT22;259;53.304;9.816;2024-03-22T11:17:59;25.50;65.70
546;DHT22;259;53.304;9.816;2024-03-22T11:20:26;25.80;65.80
546;DHT22;259;53.304;9.816;2024-03-22T11:22:53;26.00;64.30
546;DHT22;259;53.304;9.816;2024-03-22T11:25:20;26.20;63.70
546;DHT22;259;53.304;9.816;2024-03-22T11:27:48;26.30;63.30
546;DHT22;259;53.304;9.816;2024-03-22T11:30:17;26.50;62.80
546;DHT22;259;53.304;9.816;2024-03-22T11:32:43;26.50;63.20
546;DHT22;259;53.304;9.816;2024-03-22T11:35:11;26.50;63.10
546;DHT22;259;53.304;9.816;2024-03-22T11:37:41;26.60;63.70
546;DHT22;259;53.304;9.816;2024-03-22T11:40:10;26.60;62.70
546;DHT22;259;53.304;9.816;2024-03-22T11:42:41;26.50;63.00
546;DHT22;259;53.304;9.816;2024-03-22T11:45:11;26.40;63.30
546;DHT22;259;53.304;9.816;2024-03-22T11:47:38;26.40;63.50
546;DHT22;259;53.304;9.816;2024-03-22T11:50:04;26.30;63.80
546;DHT22;259;53.304;9.816;2024-03-22T11:52:30;26.30;64.20
546;DHT22;259;53.304;9.816;2024-03-22T11:54:56;26.30;64.00
546;DHT22;259;53.304;9.816;2024-03-22T11:57:23;26.30;64.20
546;DHT22;259;53.304;9.816;2024-03-22T11:59:50;26.30;64.20
546;DHT22;259;53.304;9.816;2024-03-22T12:02:16;26.20;64.40
546;DHT22;259;53.304;9.816;2024-03-22T12:04:43;26.20;64.60
546;DHT22;259;53.304;9.816;2024-03-22T12:07:15;26.10;64.50
546;DHT22;259;53.304;9.816;2024-03-22T12:09:42;26.10;65.00
546;DHT22;259;53.304;9.816;2024-03-22T12:12:08;25.80;65.00
546;DHT22;259;53.304;9.816;2024-03-22T12:14:35;25.80;65.50
546;DHT22;259;53.304;9.816;2024-03-22T12:17:04;25.60;65.70
546;DHT22;259;53.304;9.816;2024-03-22T12:19:31;25.50;66.10
546;DHT22;259;53.304;9.816;2024-03-22T12:21:56;25.50;66.50
546;DHT22;259;53.304;9.816;2024-03-22T12:24:23;25.40;66.40
546;DHT22;259;53.304;9.816;2024-03-22T12:26:49;25.30;66.60
546;DHT22;259;53.304;9.816;2024-03-22T12:29:16;25.10;66.80
546;DHT22;259;53.304;9.816;2024-03-22T12:31:42;25.00;67.30
546;DHT22;259;53.304;9.816;2024-03-22T12:34:08;24.90;67.60
546;DHT22;259;53.304;9.816;2024-03-22T12:36:34;24.80;67.70
546;DHT22;259;53.304;9.816;2024-03-22T12:39:00;24.80;67.90
546;DHT22;259;53.304;9.816;2024-03-22T12:41:26;24.70;67.80
546;DHT22;259;53.304;9.816;2024-03-22T12:43:52;24.60;68.30
546;DHT22;259;53.304;9.816;2024-03-22T12:46:18;24.60;68.30
546;DHT22;259;53.304;9.816;2024-03-22T12:48:44;24.60;68.40
546;DHT22;259;53.304;9.816;2024-03-22T12:51:09;24.50;68.40
546;DHT22;259;53.304;9.816;2024-03-22T12:53:35;24.50;68.50
546;DHT22;259;53.304;9.816;2024-03-22T12:56:01;24.40;68.50
546;DHT22;259;53.304;9.816;2024-03-22T12:58:29;24.40;68.50
546;DHT22;259;53.304;9.816;2024-03-22T13:00:58;24.30;68.50
546;DHT22;259;53.304;9.816;2024-03-22T13:03:26;24.30;68.80
546;DHT22;259;53.304;9.816;2024-03-22T13:05:52;24.20;68.50
546;DHT22;259;53.304;9.816;2024-03-22T13:08:18;24.20;68.70
546;DHT22;259;53.304;9.816;2024-03-22T13:10:45;24.20;68.70
546;DHT22;259;53.304;9.816;2024-03-22T13:13:11;24.10;68.70
546;DHT22;259;53.304;9.816;2024-03-22T13:15:36;24.10;68.70
546;DHT22;259;53.304;9.816;2024-03-22T13:18:03;24.10;68.80
546;DHT22;259;53.304;9.816;2024-03-22T13:20:29;24.00;68.80
546;DHT22;259;53.304;9.816;2024-03-22T13:22:55;24.00;68.80
546;DHT22;259;53.304;9.816;2024-03-22T13:25:22;24.00;68.60
546;DHT22;259;53.304;9.816;2024-03-22T13:27:47;23.90;68.80
546;DHT22;259;53.304;9.816;2024-03-22T13:30:14;24.00;69.20
546;DHT22;259;53.304;9.816;2024-03-22T13:32:40;23.90;69.30
546;DHT22;259;53.304;9.816;2024-03-22T13:35:06;23.90;69.30
546;DHT22;259;53.304;9.816;2024-03-22T13:37:33;23.90;69.70
546;DHT22;259;53.304;9.816;2024-03-22T13:39:59;24.00;71.90
546;DHT22;259;53.304;9.816;2024-03-22T13:42:25;23.90;72.90
546;DHT22;259;53.304;9.816;2024-03-22T13:44:51;23.90;74.70
546;DHT22;259;53.304;9.816;2024-03-22T13:47:17;23.80;77.40
546;DHT22;259;53.304;9.816;2024-03-22T13:49:43;23.90;77.80
546;DHT22;259;53.304;9.816;2024-03-22T13:52:10;23.80;79.80
546;DHT22;259;53.304;9.816;2024-03-22T13:54:36;23.80;81.30
546;DHT22;259;53.304;9.816;2024-03-22T13:57:02;23.80;79.40
546;DHT22;259;53.304;9.816;2024-03-22T13:59:28;23.80;79.10
546;DHT22;259;53.304;9.816;2024-03-22T14:01:55;23.80;78.40
546;DHT22;259;53.304;9.816;2024-03-22T14:04:22;23.80;77.80
546;DHT22;259;53.304;9.816;2024-03-22T14:06:48;23.80;77.40
546;DHT22;259;53.304;9.816;2024-03-22T14:09:14;23.80;81.10
546;DHT22;259;53.304;9.816;2024-03-22T14:11:41;23.80;77.10
546;DHT22;259;53.304;9.816;2024-03-22T14:14:11;23.80;77.70
546;DHT22;259;53.304;9.816;2024-03-22T14:16:37;23.80;80.00
546;DHT22;259;53.304;9.816;2024-03-22T14:19:04;23.80;80.40
546;DHT22;259;53.304;9.816;2024-03-22T14:21:30;23.80;78.70
546;DHT22;259;53.304;9.816;2024-03-22T14:23:55;23.80;79.60
546;DHT22;259;53.304;9.816;2024-03-22T14:26:21;23.80;79.00
546;DHT22;259;53.304;9.816;2024-03-22T14:28:48;23.80;78.50
546;DHT22;259;53.304;9.816;2024-03-22T14:31:15;23.80;78.30
546;DHT22;259;53.304;9.816;2024-03-22T14:33:41;23.80;77.40
546;DHT22;259;53.304;9.816;2024-03-22T14:36:08;23.80;78.20
546;DHT22;259;53.304;9.816;2024-03-22T14:38:35;23.70;81.50
546;DHT22;259;53.304;9.816;2024-03-22T14:41:01;23.70;82.20
546;DHT22;259;53.304;9.816;2024-03-22T14:43:27;23.50;81.40
546;DHT22;259;53.304;9.816;2024-03-22T14:45:54;23.50;80.70
546;DHT22;259;53.304;9.816;2024-03-22T14:48:23;23.40;80.30
546;DHT22;259;53.304;9.816;2024-03-22T14:50:50;23.40;79.60
546;DHT22;259;53.304;9.816;2024-03-22T14:53:19;23.30;79.20
546;DHT22;259;53.304;9.816;2024-03-22T14:58:25;23.30;78.70
546;DHT22;259;53.304;9.816;2024-03-22T15:00:53;23.20;78.50
546;DHT22;259;53.304;9.816;2024-03-22T15:03:19;23.30;79.20
546;DHT22;259;53.304;9.816;2024-03-22T15:05:46;23.30;80.00
546;DHT22;259;53.304;9.816;2024-03-22T15:08:11;23.30;78.70
546;DHT22;259;53.304;9.816;2024-03-22T15:10:37;23.30;85.00
546;DHT22;259;53.304;9.816;2024-03-22T15:13:04;23.20;83.30
546;DHT22;259;53.304;9.816;2024-03-22T15:15:32;23.10;82.40
546;DHT22;259;53.304;9.816;2024-03-22T15:17:58;23.00;81.40
546;DHT22;259;53.304;9.816;2024-03-22T15:20:24;22.90;82.20
546;DHT22;259;53.304;9.816;2024-03-22T15:22:53;22.90;82.00
546;DHT22;259;53.304;9.816;2024-03-22T15:25:19;22.80;81.50
546;DHT22;259;53.304;9.816;2024-03-22T15:27:44;22.70;82.00
546;DHT22;259;53.304;9.816;2024-03-22T15:30:10;22.60;82.60
546;DHT22;259;53.304;9.816;2024-03-22T15:32:36;22.60;82.20
546;DHT22;259;53.304;9.816;2024-03-22T15:35:03;22.50;82.40
546;DHT22;259;53.304;9.816;2024-03-22T15:37:29;22.50;82.00
546;DHT22;259;53.304;9.816;2024-03-22T15:39:55;22.50;81.90
546;DHT22;259;53.304;9.816;2024-03-22T15:42:20;22.40;81.80
546;DHT22;259;53.304;9.816;2024-03-22T15:44:46;22.40;81.60
546;DHT22;259;53.304;9.816;2024-03-22T15:47:12;22.40;81.90
546;DHT22;259;53.304;9.816;2024-03-22T15:49:37;22.30;81.90
546;DHT22;259;53.304;9.816;2024-03-22T15:52:03;22.30;82.10
546;DHT22;259;53.304;9.816;2024-03-22T15:54:29;22.20;81.90
546;DHT22;259;53.304;9.816;2024-03-22T15:56:55;22.20;81.70
546;DHT22;259;53.304;9.816;2024-03-22T15:59:20;22.20;81.90
546;DHT22;259;53.304;9.816;2024-03-22T16:01:46;22.10;81.90
546;DHT22;259;53.304;9.816;2024-03-22T16:04:12;22.00;81.60
546;DHT22;259;53.304;9.816;2024-03-22T16:06:37;21.40;81.10
546;DHT22;259;53.304;9.816;2024-03-22T16:09:03;22.00;81.80
546;DHT22;259;53.304;9.816;2024-03-22T16:11:34;22.00;81.80
546;DHT22;259;53.304;9.816;2024-03-22T16:14:00;21.90;81.70
546;DHT22;259;53.304;9.816;2024-03-22T16:16:26;21.90;81.60
546;DHT22;259;53.304;9.816;2024-03-22T16:18:52;21.80;81.50
546;DHT22;259;53.304;9.816;2024-03-22T16:21:18;21.80;81.40
546;DHT22;259;53.304;9.816;2024-03-22T16:23:44;21.80;84.30
546;DHT22;259;53.304;9.816;2024-03-22T16:26:10;21.70;83.50
546;DHT22;259;53.304;9.816;2024-03-22T16:28:35;21.70;83.30
546;DHT22;259;53.304;9.816;2024-03-22T16:31:02;21.70;82.40
546;DHT22;259;53.304;9.816;2024-03-22T16:33:27;21.70;81.10
546;DHT22;259;53.304;9.816;2024-03-22T16:35:54;21.80;80.40